Time;durP1;ratioP1;P1;durP2;ratioP2;P2;SDS_P1;SDS_P2;PMS_P1;PMS_P2;Temp;Humidity;BMP_temperature;BMP_pressure;BME280_temperature;BME280_humidity;BME280_pressure;Samples;Min_cycle;Max_cycle;Signal;HPM_P1;HPM_P2
2021/03/29 00:02:10;;;;;;;28.80;26.45;;;;;;;6.40;100.00;102577.56;5025120;28;20018;-72
2021/03/29 00:04:36;;;;;;;28.25;26.67;;;;;;;6.34;100.00;102564.91;5023871;28;20547;-72
2021/03/29 00:07:04;;;;;;;29.15;27.40;;;;;;;6.26;100.00;102575.28;5024631;28;20052;-72
2021/03/29 00:09:31;;;;;;;31.83;29.77;;;;;;;6.32;100.00;102578.22;5023598;28;20025;-72
2021/03/29 00:12:00;;;;;;;29.67;28.00;;;;;;;6.31;100.00;102576.56;5024177;28;20045;-72
2021/03/29 00:14:27;;;;;;;28.65;27.08;;;;;;;6.32;100.00;102577.41;5023807;28;20022;-72
2021/03/29 00:16:53;;;;;;;29.35;27.25;;;;;;;6.34;100.00;102583.38;5029366;28;20032;-72
2021/03/29 00:19:19;;;;;;;30.60;28.33;;;;;;;6.27;100.00;102591.00;5039580;28;20392;-72
2021/03/29 00:21:45;;;;;;;29.45;27.70;;;;;;;6.27;100.00;102582.25;5023931;28;20029;-72
2021/03/29 00:24:12;;;;;;;28.65;27.15;;;;;;;6.34;100.00;102591.31;5030022;28;20041;-72
2021/03/29 00:26:39;;;;;;;32.00;30.30;;;;;;;6.29;100.00;102589.03;5031416;28;20030;-72
2021/03/29 00:29:05;;;;;;;31.23;29.52;;;;;;;6.24;100.00;102593.91;5023014;28;20026;-72
2021/03/29 00:31:32;;;;;;;30.42;28.30;;;;;;;6.34;100.00;102597.41;5024103;28;20565;-72
2021/03/29 00:33:58;;;;;;;33.08;31.27;;;;;;;6.24;100.00;102598.34;5024136;28;20034;-72
2021/03/29 00:36:25;;;;;;;29.08;27.33;;;;;;;6.24;100.00;102599.19;5024566;28;20043;-72
2021/03/29 00:38:53;;;;;;;32.83;30.90;;;;;;;6.29;100.00;102591.69;5024491;28;20112;-72
2021/03/29 00:41:20;;;;;;;26.63;24.75;;;;;;;6.26;100.00;102586.69;5024611;28;20024;-72
2021/03/29 00:43:47;;;;;;;25.80;24.40;;;;;;;6.24;100.00;102588.63;5023275;28;20025;-72
2021/03/29 00:46:15;;;;;;;26.08;24.38;;;;;;;6.21;100.00;102586.25;5031659;28;20033;-72
2021/03/29 00:48:42;;;;;;;26.00;24.15;;;;;;;6.21;100.00;102593.34;5024649;28;20025;-72
2021/03/29 00:51:09;;;;;;;25.38;23.88;;;;;;;6.25;100.00;102600.84;5022522;28;20113;-72
2021/03/29 00:53:37;;;;;;;29.00;26.30;;;;;;;6.11;100.00;102596.78;5025136;28;20022;-72
2021/03/29 00:56:03;;;;;;;25.88;24.08;;;;;;;6.03;100.00;102595.75;5039984;28;20033;-72
2021/03/29 00:58:30;;;;;;;28.13;26.17;;;;;;;6.01;100.00;102597.66;5022322;28;20039;-72
2021/03/29 01:01:09;;;;;;;27.13;24.88;;;;;;;5.93;100.00;102599.16;5025377;28;20026;-72
2021/03/29 01:03:37;;;;;;;25.50;23.60;;;;;;;5.93;100.00;102599.16;5031802;28;20032;-72
2021/03/29 01:06:05;;;;;;;24.45;22.92;;;;;;;5.97;100.00;102603.19;5024764;28;20033;-72
2021/03/29 01:08:33;;;;;;;25.80;24.27;;;;;;;6.02;100.00;102604.59;5030934;28;20033;-72
2021/03/29 01:11:02;;;;;;;26.55;24.88;;;;;;;6.01;100.00;102600.31;5023202;28;20064;-72
2021/03/29 01:13:28;;;;;;;26.30;24.85;;;;;;;6.01;100.00;102602.94;5024074;28;20038;-72
2021/03/29 01:15:56;;;;;;;26.95;25.17;;;;;;;6.02;100.00;102600.19;5028686;28;20030;-72
2021/03/29 01:18:24;;;;;;;28.40;26.67;;;;;;;5.98;100.00;102601.41;5024509;28;20685;-72
2021/03/29 01:21:20;;;;;;;30.17;28.15;;;;;;;5.87;100.00;102604.91;5024559;28;20037;-72
2021/03/29 01:23:47;;;;;;;27.05;25.35;;;;;;;5.80;100.00;102606.38;5023532;28;20033;-72
2021/03/29 01:26:31;;;;;;;30.42;28.73;;;;;;;5.91;100.00;102608.97;5024458;28;20242;-72
2021/03/29 01:28:57;;;;;;;30.42;28.40;;;;;;;5.79;100.00;102602.06;5023514;28;20089;-72
2021/03/29 01:31:23;;;;;;;31.92;29.30;;;;;;;5.79;100.00;102609.16;5024579;28;20036;-72
2021/03/29 01:33:49;;;;;;;30.67;28.65;;;;;;;5.81;100.00;102601.94;5034294;28;20025;-72
2021/03/29 01:36:15;;;;;;;32.03;30.17;;;;;;;5.81;100.00;102608.06;5022776;28;20029;-72
2021/03/29 01:38:42;;;;;;;33.63;30.77;;;;;;;5.69;100.00;102603.81;5029164;28;20589;-72
2021/03/29 01:41:09;;;;;;;35.38;31.88;;;;;;;5.62;100.00;102602.63;5025757;28;20029;-72
2021/03/29 01:43:35;;;;;;;33.25;30.15;;;;;;;5.62;100.00;102603.47;5022561;28;20116;-72
2021/03/29 01:46:01;;;;;;;32.67;29.77;;;;;;;5.65;100.00;102605.03;5021991;28;20033;-72
2021/03/29 01:48:27;;;;;;;32.35;29.05;;;;;;;5.64;100.00;102603.34;5022282;28;20026;-72
2021/03/29 01:50:54;;;;;;;31.65;29.00;;;;;;;5.47;100.00;102602.94;5022973;28;20068;-72
2021/03/29 01:53:23;;;;;;;32.35;29.90;;;;;;;5.53;100.00;102606.88;5025729;28;20037;-72
2021/03/29 01:55:49;;;;;;;31.77;29.20;;;;;;;5.47;100.00;102602.94;5027772;28;20052;-72
2021/03/29 01:58:15;;;;;;;47.42;33.40;;;;;;;5.23;100.00;102600.53;5026924;28;20842;-72
2021/03/29 02:00:46;;;;;;;36.13;29.92;;;;;;;5.14;100.00;102603.06;5027515;28;20499;-72
2021/03/29 02:03:12;;;;;;;30.92;28.25;;;;;;;5.10;100.00;102602.47;5028168;28;20063;-72
2021/03/29 02:05:40;;;;;;;31.27;28.45;;;;;;;5.07;100.00;102612.44;5032879;28;20040;-72
2021/03/29 02:08:07;;;;;;;29.08;26.58;;;;;;;5.01;100.00;102608.50;5028171;28;20132;-72
2021/03/29 02:10:35;;;;;;;29.52;27.40;;;;;;;5.09;100.00;102613.16;5030477;28;20389;-72
2021/03/29 02:13:12;;;;;;;26.15;24.50;;;;;;;4.93;100.00;102622.28;5024688;28;20676;-72
2021/03/29 02:15:39;;;;;;;26.77;24.50;;;;;;;4.76;100.00;102620.97;5026781;28;20071;-72
2021/03/29 02:18:34;;;;;;;28.48;26.48;;;;;;;4.90;100.00;102612.00;5026153;28;20052;-72
2021/03/29 02:21:03;;;;;;;28.40;26.30;;;;;;;4.95;100.00;102622.97;5026526;28;20053;-72
2021/03/29 02:23:30;;;;;;;27.13;25.48;;;;;;;4.93;100.00;102618.78;5043454;28;20363;-72
2021/03/29 02:25:59;;;;;;;27.75;26.05;;;;;;;4.91;100.00;102621.56;5028487;28;20485;-72
2021/03/29 02:28:25;;;;;;;30.73;28.40;;;;;;;4.86;100.00;102621.06;5027018;28;20457;-72
2021/03/29 02:30:52;;;;;;;30.60;28.80;;;;;;;4.81;100.00;102616.19;5026463;28;20033;-72
2021/03/29 02:33:18;;;;;;;29.50;27.80;;;;;;;4.80;100.00;102618.94;5027022;28;20033;-72
2021/03/29 02:35:44;;;;;;;29.60;27.88;;;;;;;4.78;100.00;102624.34;5026475;28;20033;-72
2021/03/29 02:38:13;;;;;;;29.23;27.73;;;;;;;4.77;100.00;102627.91;5026605;28;20021;-72
2021/03/29 02:40:40;;;;;;;29.33;27.73;;;;;;;4.76;100.00;102623.59;5025474;28;20040;-72
2021/03/29 02:43:07;;;;;;;27.25;25.60;;;;;;;4.77;100.00;102625.28;5038143;28;20037;-72
2021/03/29 02:45:36;;;;;;;24.55;22.83;;;;;;;4.82;100.00;102625.75;5027225;28;20273;-72
2021/03/29 02:48:07;;;;;;;26.20;24.50;;;;;;;4.74;100.00;102622.88;5025923;28;21586;-72
2021/03/29 02:50:35;;;;;;;25.67;23.80;;;;;;;4.65;100.00;102612.25;5027193;28;20069;-72
2021/03/29 02:53:03;;;;;;;26.33;24.60;;;;;;;4.54;100.00;102616.56;5027084;28;20462;-72
2021/03/29 02:55:31;;;;;;;26.25;24.38;;;;;;;4.53;100.00;102614.03;5026246;28;20048;-72
2021/03/29 02:58:02;;;;;;;26.65;24.75;;;;;;;4.42;100.00;102612.25;5028534;28;20036;-72
2021/03/29 03:00:28;;;;;;;25.02;23.35;;;;;;;4.43;100.00;102618.34;5025383;28;20486;-72
2021/03/29 03:02:58;;;;;;;25.52;24.15;;;;;;;4.46;100.00;102618.13;5026566;28;20041;-72
2021/03/29 03:05:29;;;;;;;26.35;24.80;;;;;;;4.49;100.00;102616.09;5033318;28;20046;-72
2021/03/29 03:07:56;;;;;;;25.27;23.63;;;;;;;4.43;100.00;102613.09;5026017;28;20392;-72
2021/03/29 03:10:22;;;;;;;24.58;22.88;;;;;;;4.33;100.00;102616.44;5031740;28;20048;-72
2021/03/29 03:12:49;;;;;;;25.42;23.77;;;;;;;4.34;100.00;102618.09;5027234;28;20049;-72
2021/03/29 03:15:21;;;;;;;24.63;23.08;;;;;;;4.30;100.00;102614.06;5026565;28;20045;-71
2021/03/29 03:17:48;;;;;;;23.88;22.45;;;;;;;4.21;100.00;102609.50;5039352;28;20062;-72
2021/03/29 03:20:16;;;;;;;25.10;23.13;;;;;;;4.20;100.00;102605.16;5025337;28;20045;-72
2021/03/29 03:23:15;;;;;;;24.88;23.35;;;;;;;4.10;100.00;102612.09;5026380;28;20120;-72
2021/03/29 03:25:50;;;;;;;26.02;23.77;;;;;;;4.12;100.00;102618.09;5008448;28;20099;-72
2021/03/29 03:28:18;;;;;;;24.30;22.38;;;;;;;4.09;100.00;102613.91;5032184;28;20040;-72
2021/03/29 03:30:47;;;;;;;24.25;22.60;;;;;;;4.06;100.00;102618.56;5025429;28;20060;-72
2021/03/29 03:33:14;;;;;;;26.50;24.75;;;;;;;3.96;100.00;102615.78;5037992;28;20253;-72
2021/03/29 03:35:41;;;;;;;23.83;22.25;;;;;;;3.90;100.00;102617.09;5038509;28;20038;-72
2021/03/29 03:38:10;;;;;;;24.40;22.70;;;;;;;3.91;100.00;102615.31;5022081;28;20040;-72
2021/03/29 03:40:37;;;;;;;23.38;21.88;;;;;;;3.82;100.00;102624.72;5027662;28;20447;-72
2021/03/29 03:43:05;;;;;;;23.00;21.10;;;;;;;3.59;100.00;102615.06;5028903;28;20068;-72
2021/03/29 03:45:39;;;;;;;22.00;20.05;;;;;;;3.33;100.00;102611.72;5026879;28;20037;-72
2021/03/29 03:48:06;;;;;;;19.08;17.70;;;;;;;2.73;100.00;102621.28;5024952;28;20441;-71
2021/03/29 03:50:31;;;;;;;20.30;18.85;;;;;;;2.57;100.00;102616.25;5030167;28;20053;-72
2021/03/29 03:52:58;;;;;;;20.40;19.00;;;;;;;2.94;100.00;102621.56;5024577;28;20063;-72
2021/03/29 03:55:24;;;;;;;19.45;17.95;;;;;;;2.78;100.00;102631.44;5023716;28;20021;-72
2021/03/29 03:57:51;;;;;;;19.98;18.45;;;;;;;2.77;100.00;102635.88;5025974;28;20037;-72
2021/03/29 04:00:18;;;;;;;17.98;16.60;;;;;;;2.04;100.00;102641.78;5024731;28;20354;-72
2021/03/29 04:02:45;;;;;;;18.00;16.70;;;;;;;2.86;100.00;102647.50;5022883;28;20037;-72
2021/03/29 04:05:13;;;;;;;20.50;19.05;;;;;;;3.19;100.00;102639.00;5025052;28;20095;-72
2021/03/29 04:07:39;;;;;;;25.60;23.35;;;;;;;3.55;100.00;102643.38;5025261;28;20083;-72
2021/03/29 04:10:16;;;;;;;21.05;19.30;;;;;;;3.22;100.00;102637.00;5025083;28;20021;-72
2021/03/29 04:12:44;;;;;;;22.95;21.02;;;;;;;3.38;100.00;102636.72;5026136;28;20041;-72
2021/03/29 04:15:10;;;;;;;26.15;23.85;;;;;;;3.44;100.00;102640.69;5023518;28;20029;-72
2021/03/29 04:17:35;;;;;;;26.17;23.90;;;;;;;3.46;100.00;102646.69;5031884;28;20105;-72
2021/03/29 04:20:01;;;;;;;26.55;24.25;;;;;;;3.27;100.00;102647.19;5023684;28;20035;-72
2021/03/29 04:22:27;;;;;;;30.70;28.08;;;;;;;3.76;100.00;102651.47;5024785;28;20017;-72
2021/03/29 04:24:52;;;;;;;29.63;27.42;;;;;;;3.72;100.00;102652.63;5032214;28;20017;-72
2021/03/29 04:27:18;;;;;;;37.08;33.75;;;;;;;3.66;100.00;102640.78;5025405;28;20116;-72
2021/03/29 04:29:43;;;;;;;35.22;31.48;;;;;;;3.70;100.00;102640.56;5033315;28;20025;-71
2021/03/29 04:32:09;;;;;;;30.60;27.95;;;;;;;3.57;100.00;102636.22;5024417;28;20037;-72
2021/03/29 04:34:35;;;;;;;31.85;28.88;;;;;;;3.25;100.00;102641.19;5024690;28;20458;-72
2021/03/29 04:37:01;;;;;;;31.38;28.25;;;;;;;3.34;100.00;102647.56;5023906;28;20175;-72
2021/03/29 04:39:26;;;;;;;33.15;30.08;;;;;;;3.33;100.00;102649.38;5024883;28;20478;-71
2021/03/29 04:41:52;;;;;;;54.25;36.20;;;;;;;3.18;100.00;102659.19;5024915;28;20025;-72
2021/03/29 04:44:17;;;;;;;41.65;32.28;;;;;;;3.03;100.00;102662.91;5028769;28;20021;-71
2021/03/29 04:46:43;;;;;;;33.00;29.65;;;;;;;2.90;100.00;102656.81;5031675;28;20705;-71
2021/03/29 04:49:08;;;;;;;92.57;75.75;;;;;;;3.32;100.00;102655.53;5024375;28;20029;-72
2021/03/29 04:51:34;;;;;;;107.00;89.00;;;;;;;3.55;100.00;102658.31;5024626;28;20478;-71
2021/03/29 04:53:59;;;;;;;102.90;80.25;;;;;;;3.30;100.00;102659.22;5023237;28;20024;-72
2021/03/29 04:56:25;;;;;;;91.38;69.97;;;;;;;3.42;100.00;102653.94;5029780;28;20533;-71
2021/03/29 04:58:50;;;;;;;59.70;53.40;;;;;;;3.61;100.00;102655.22;5028408;28;20493;-72
2021/03/29 05:01:16;;;;;;;56.67;50.80;;;;;;;3.96;100.00;102655.22;5027968;28;20370;-72
2021/03/29 05:03:41;;;;;;;54.20;48.67;;;;;;;4.21;100.00;102648.13;5026424;28;20018;-72
2021/03/29 05:06:07;;;;;;;54.05;48.45;;;;;;;4.35;100.00;102643.44;5026752;28;20033;-72
2021/03/29 05:08:32;;;;;;;52.72;47.25;;;;;;;4.35;100.00;102653.97;5026480;28;20021;-72
2021/03/29 05:10:58;;;;;;;51.95;46.55;;;;;;;4.39;100.00;102654.59;5026919;28;20120;-71
2021/03/29 05:13:23;;;;;;;50.88;45.78;;;;;;;4.44;100.00;102646.34;5026556;28;20373;-72
2021/03/29 05:15:49;;;;;;;53.00;47.65;;;;;;;4.44;100.00;102649.81;5027881;28;20482;-71
2021/03/29 05:18:14;;;;;;;57.38;51.25;;;;;;;4.67;100.00;102650.66;5035476;28;20025;-72
2021/03/29 05:20:40;;;;;;;58.50;52.20;;;;;;;4.88;100.00;102642.03;5030206;28;20052;-72
2021/03/29 05:23:05;;;;;;;57.75;51.65;;;;;;;4.95;100.00;102646.69;5026466;28;20103;-71
2021/03/29 05:25:31;;;;;;;59.17;52.28;;;;;;;5.16;100.00;102644.13;5027564;28;20378;-71
2021/03/29 05:27:56;;;;;;;56.13;50.63;;;;;;;5.31;100.00;102641.22;5034674;28;20034;-72
2021/03/29 05:30:23;;;;;;;55.13;49.53;;;;;;;5.38;100.00;102640.59;5032977;28;20461;-71
2021/03/29 05:32:48;;;;;;;57.63;50.33;;;;;;;5.51;100.00;102643.09;5032560;28;20087;-72
2021/03/29 05:35:14;;;;;;;57.20;50.75;;;;;;;5.50;100.00;102642.22;5036135;28;20422;-72
2021/03/29 05:37:40;;;;;;;102.25;63.60;;;;;;;5.61;100.00;102644.00;5031602;28;20028;-72
2021/03/29 05:40:06;;;;;;;71.95;53.75;;;;;;;5.78;100.00;102639.09;5034713;28;20028;-72
2021/03/29 05:42:32;;;;;;;51.72;46.47;;;;;;;5.83;100.00;102643.03;5041721;28;20385;-72
2021/03/29 05:45:09;;;;;;;52.70;47.10;;;;;;;5.97;100.00;102634.03;5030041;28;20017;-72
2021/03/29 05:47:36;;;;;;;69.45;56.08;;;;;;;6.15;100.00;102637.75;5032541;28;20068;-72
2021/03/29 05:50:07;;;;;;;86.30;66.88;;;;;;;6.47;100.00;102649.16;5031745;28;20106;-72
2021/03/29 05:52:33;;;;;;;59.10;51.95;;;;;;;6.64;100.00;102645.91;5030875;28;20029;-73
2021/03/29 05:54:59;;;;;;;55.17;49.60;;;;;;;6.51;100.00;102640.03;5031026;28;20523;-72
2021/03/29 05:57:26;;;;;;;53.50;47.90;;;;;;;6.72;100.00;102643.44;5031749;28;20021;-72
2021/03/29 05:59:51;;;;;;;54.15;49.13;;;;;;;6.75;100.00;102639.69;5033272;28;20036;-72
2021/03/29 06:02:31;;;;;;;53.95;48.78;;;;;;;6.99;100.00;102632.25;5028217;28;20025;-72
2021/03/29 06:04:57;;;;;;;53.53;48.13;;;;;;;7.21;100.00;102625.06;5030432;28;20025;-72
2021/03/29 06:07:30;;;;;;;51.88;47.17;;;;;;;7.24;100.00;102619.50;5030708;28;20134;-72
2021/03/29 06:10:06;;;;;;;52.35;47.05;;;;;;;7.62;100.00;102613.38;5030588;28;20025;-72
2021/03/29 06:12:46;;;;;;;53.42;48.35;;;;;;;7.65;100.00;102621.03;5030714;28;20053;-72
2021/03/29 06:15:13;;;;;;;53.13;48.13;;;;;;;7.81;100.00;102623.13;5032807;28;20099;-72
2021/03/29 06:17:39;;;;;;;52.90;48.40;;;;;;;7.90;100.00;102626.72;5030217;28;20244;-72
2021/03/29 06:20:06;;;;;;;53.30;48.20;;;;;;;8.39;100.00;102624.81;5029024;28;20399;-72
2021/03/29 06:22:37;;;;;;;53.78;48.78;;;;;;;8.46;100.00;102624.09;5030354;28;20472;-72
2021/03/29 06:25:11;;;;;;;55.60;50.03;;;;;;;8.63;100.00;102627.78;5029362;28;20021;-72
2021/03/29 06:27:55;;;;;;;53.88;49.08;;;;;;;8.59;100.00;102625.56;5048398;28;20152;-72
2021/03/29 06:30:22;;;;;;;55.60;50.33;;;;;;;8.54;100.00;102620.72;5029069;28;20033;-72
2021/03/29 06:33:13;;;;;;;54.65;49.53;;;;;;;8.74;100.00;102615.31;5029372;28;20171;-71
2021/03/29 06:35:44;;;;;;;54.38;49.47;;;;;;;8.84;100.00;102627.53;5029157;28;20462;-72
2021/03/29 06:38:19;;;;;;;55.80;50.60;;;;;;;8.99;100.00;102624.41;5043175;28;20026;-72
2021/03/29 06:40:52;;;;;;;54.40;49.55;;;;;;;9.27;100.00;102627.84;5031090;28;20036;-72
2021/03/29 06:43:28;;;;;;;53.80;49.00;;;;;;;9.31;100.00;102629.19;5026693;28;20065;-72
2021/03/29 06:46:05;;;;;;;52.95;48.47;;;;;;;9.36;100.00;102627.75;5031788;28;20368;-72
2021/03/29 06:48:33;;;;;;;53.60;48.80;;;;;;;9.37;100.00;102633.88;5028679;28;20095;-72
2021/03/29 06:51:07;;;;;;;55.03;50.42;;;;;;;9.52;100.00;102637.69;5030160;28;20437;-72
2021/03/29 06:53:32;;;;;;;52.85;48.17;;;;;;;9.66;100.00;102635.50;5027804;28;20056;-72
2021/03/29 06:56:35;;;;;;;60.05;54.17;;;;;;;9.79;100.00;102631.44;5030684;28;20056;-72
2021/03/29 06:59:15;;;;;;;53.97;49.38;;;;;;;9.75;100.00;102626.59;5028437;28;20480;-72
2021/03/29 07:01:52;;;;;;;50.90;46.78;;;;;;;9.79;100.00;102633.25;5029687;28;20033;-72
2021/03/29 07:04:26;;;;;;;55.10;50.72;;;;;;;9.96;100.00;102636.88;5027019;28;20160;-72
2021/03/29 07:06:53;;;;;;;55.08;50.58;;;;;;;10.21;100.00;102637.88;5027411;28;20025;-72
2021/03/29 07:09:19;;;;;;;54.97;50.58;;;;;;;10.22;99.54;102632.38;5025167;28;20021;-72
2021/03/29 07:11:46;;;;;;;55.45;51.05;;;;;;;10.49;99.46;102635.91;5034993;28;20041;-72
2021/03/29 07:14:13;;;;;;;59.35;54.35;;;;;;;10.48;97.75;102632.41;5028311;28;20038;-72
2021/03/29 07:16:45;;;;;;;58.58;53.63;;;;;;;10.48;98.31;102634.25;5022426;28;20116;-72
2021/03/29 07:19:10;;;;;;;56.57;51.63;;;;;;;10.43;96.68;102640.00;5034659;28;20124;-72
2021/03/29 07:21:36;;;;;;;58.53;53.63;;;;;;;10.49;96.56;102642.03;5027162;28;20276;-73
2021/03/29 07:24:12;;;;;;;57.58;52.58;;;;;;;10.68;94.20;102638.31;5027697;28;20462;-74
2021/03/29 07:26:45;;;;;;;57.75;52.65;;;;;;;10.88;90.88;102633.56;5019801;28;20532;-74
2021/03/29 07:29:15;;;;;;;58.40;53.50;;;;;;;11.15;89.48;102631.66;5024293;28;20040;-74
2021/03/29 07:31:42;;;;;;;58.05;52.95;;;;;;;10.88;89.10;102638.06;5026094;28;20041;-74
2021/03/29 07:34:09;;;;;;;58.03;53.22;;;;;;;10.79;95.63;102631.88;5021976;28;20030;-72
2021/03/29 07:36:49;;;;;;;56.13;51.30;;;;;;;10.96;88.80;102636.25;5029007;28;20116;-72
2021/03/29 07:39:37;;;;;;;53.20;48.75;;;;;;;10.91;84.23;102635.91;5033352;28;20053;-72
2021/03/29 07:42:24;;;;;;;52.45;48.08;;;;;;;11.41;85.00;102632.38;5040250;28;20025;-72
2021/03/29 07:45:00;;;;;;;53.00;48.90;;;;;;;11.51;79.96;102628.72;5033470;28;20029;-72
2021/03/29 07:47:39;;;;;;;55.55;51.13;;;;;;;11.39;83.42;102631.69;5037132;28;20393;-72
2021/03/29 07:50:06;;;;;;;53.20;48.80;;;;;;;11.32;78.50;102628.03;5016465;28;20026;-73
2021/03/29 07:52:35;;;;;;;53.58;48.78;;;;;;;11.86;100.00;102630.22;5023380;28;20512;-73
2021/03/29 07:55:16;;;;;;;54.47;49.67;;;;;;;12.48;81.20;102630.44;5023180;28;20029;-74
2021/03/29 07:57:44;;;;;;;55.45;50.45;;;;;;;12.02;66.16;102622.22;5038175;28;20049;-73
2021/03/29 08:00:11;;;;;;;56.97;51.90;;;;;;;11.99;100.00;102632.38;5024651;28;20029;-72
2021/03/29 08:02:37;;;;;;;55.25;50.42;;;;;;;11.59;60.27;102626.03;5025554;28;20022;-73
2021/03/29 08:05:06;;;;;;;54.85;50.15;;;;;;;12.36;55.87;102629.13;5030547;28;20688;-72
2021/03/29 08:07:55;;;;;;;53.78;49.28;;;;;;;11.92;64.39;102632.22;5022819;28;20351;-73
2021/03/29 08:11:05;;;;;;;53.92;49.45;;;;;;;12.71;59.54;102632.31;5044594;28;20132;-74
2021/03/29 08:13:53;;;;;;;53.67;48.88;;;;;;;12.26;59.26;102634.66;5027749;28;20198;-74
2021/03/29 08:16:21;;;;;;;56.60;51.80;;;;;;;12.70;61.49;102634.16;5025043;28;20087;-74
2021/03/29 08:19:06;;;;;;;55.30;50.53;;;;;;;12.96;72.65;102625.06;5025526;28;20038;-73
2021/03/29 08:21:51;;;;;;;53.55;48.85;;;;;;;13.85;74.17;102628.91;5036348;28;20025;-73
2021/03/29 08:24:29;;;;;;;59.15;53.80;;;;;;;14.23;74.54;102628.88;5014904;28;20033;-77
2021/03/29 08:27:00;;;;;;;58.42;53.30;;;;;;;13.79;52.47;102620.81;5024036;28;20099;-76
2021/03/29 08:29:34;;;;;;;59.45;54.25;;;;;;;13.21;53.16;102617.72;5024712;28;20026;-76
2021/03/29 08:32:26;;;;;;;55.38;50.67;;;;;;;13.42;54.79;102614.44;5026864;28;20128;-78
2021/03/29 08:35:09;;;;;;;58.92;53.95;;;;;;;13.85;61.18;102604.06;5021975;28;20029;-75
2021/03/29 08:37:42;;;;;;;58.63;53.25;;;;;;;13.10;78.57;102616.31;5025343;28;20146;-74
2021/03/29 08:40:14;;;;;;;60.53;55.42;;;;;;;12.49;80.82;102609.94;5033746;28;20025;-74
2021/03/29 08:42:45;;;;;;;61.10;55.93;;;;;;;12.37;86.62;102601.47;5024750;28;20486;-74
2021/03/29 08:45:25;;;;;;;60.25;55.25;;;;;;;13.94;86.32;102594.94;5026131;28;20025;-74
2021/03/29 08:47:54;;;;;;;57.35;52.45;;;;;;;14.55;69.08;102602.81;5028974;28;20036;-74
2021/03/29 08:50:22;;;;;;;57.00;52.00;;;;;;;14.37;75.97;102598.66;5031402;28;20061;-74
2021/03/29 08:52:57;;;;;;;57.60;52.50;;;;;;;15.05;61.60;102599.28;5034227;28;20123;-75
2021/03/29 08:55:25;;;;;;;58.92;53.90;;;;;;;13.71;70.42;102589.69;5023794;28;20037;-74
2021/03/29 08:57:54;;;;;;;57.95;52.85;;;;;;;13.89;62.83;102589.34;5026595;28;20044;-74
2021/03/29 09:00:23;;;;;;;56.83;52.08;;;;;;;13.85;59.75;102598.72;5021446;28;20184;-73
2021/03/29 09:02:49;;;;;;;58.83;53.83;;;;;;;14.85;60.82;102604.41;5033328;28;20405;-77
2021/03/29 09:05:17;;;;;;;56.45;51.75;;;;;;;14.12;58.60;102594.59;5025428;28;20130;-75
2021/03/29 09:07:53;;;;;;;58.30;53.10;;;;;;;14.94;50.73;102593.59;5022171;28;20033;-74
2021/03/29 09:10:43;;;;;;;60.67;55.17;;;;;;;15.63;65.82;102585.81;5024624;28;20535;-73
2021/03/29 09:13:11;;;;;;;59.20;53.75;;;;;;;14.34;82.86;102592.84;5027301;28;20126;-72
2021/03/29 09:15:40;;;;;;;59.83;54.63;;;;;;;16.47;64.49;102582.22;5025694;28;20570;-73
2021/03/29 09:18:14;;;;;;;62.95;57.25;;;;;;;15.59;55.59;102579.19;5026983;28;20034;-73
2021/03/29 09:20:43;;;;;;;62.03;56.72;;;;;;;15.46;65.24;102579.06;5021483;28;20128;-73
2021/03/29 09:23:13;;;;;;;62.80;57.50;;;;;;;16.03;50.40;102581.56;5029197;28;20029;-72
2021/03/29 09:25:44;;;;;;;59.50;54.15;;;;;;;16.03;63.83;102578.91;5022643;28;20030;-73
2021/03/29 09:30:54;;;;;;;59.75;54.42;;;;;;;13.63;97.42;102565.72;5022914;28;20152;-75
2021/03/29 09:33:21;;;;;;;55.50;50.50;;;;;;;13.42;86.15;102574.41;5039919;28;20095;-75
2021/03/29 09:35:49;;;;;;;56.47;51.38;;;;;;;13.03;90.63;102570.00;5020224;28;20387;-76
2021/03/29 09:38:15;;;;;;;55.60;50.47;;;;;;;12.54;100.00;102565.78;5041757;28;20465;-69
2021/03/29 09:40:41;;;;;;;56.40;51.30;;;;;;;13.62;100.00;102564.91;5027282;28;20041;-72
2021/03/29 09:43:19;;;;;;;55.53;50.47;;;;;;;13.47;88.69;102567.53;5024425;28;20038;-71
2021/03/29 09:45:46;;;;;;;55.67;50.67;;;;;;;14.23;86.08;102572.78;5031936;28;20025;-73
2021/03/29 09:48:12;;;;;;;56.38;51.17;;;;;;;12.80;96.98;102562.81;5023767;28;20041;-71
2021/03/29 09:50:43;;;;;;;56.58;51.53;;;;;;;15.41;87.69;102557.41;5024631;28;20041;-71
2021/03/29 09:53:19;;;;;;;55.70;50.58;;;;;;;14.84;93.48;102559.97;5023460;28;20037;-71
2021/03/29 09:55:54;;;;;;;54.75;49.80;;;;;;;14.72;70.01;102550.78;5025629;28;20041;-72
2021/03/29 09:58:29;;;;;;;56.60;51.25;;;;;;;14.53;93.25;102548.72;5038245;28;20048;-71
2021/03/29 10:01:00;;;;;;;58.85;53.15;;;;;;;12.25;100.00;102550.41;5022136;28;20060;-70
2021/03/29 10:03:26;;;;;;;59.17;53.72;;;;;;;14.20;94.42;102543.75;5021267;28;20479;-71
2021/03/29 10:05:53;;;;;;;57.13;52.15;;;;;;;14.63;92.43;102542.03;5024289;28;20029;-71
2021/03/29 10:08:33;;;;;;;58.58;53.47;;;;;;;13.70;98.31;102534.59;5021629;28;20047;-71
2021/03/29 10:11:07;;;;;;;59.08;53.47;;;;;;;13.57;92.54;102534.41;5026313;28;20294;-72
2021/03/29 10:13:41;;;;;;;57.83;52.58;;;;;;;14.01;82.79;102528.25;5019798;28;20041;-71
2021/03/29 10:16:23;;;;;;;56.60;51.40;;;;;;;15.08;91.78;102533.84;5027245;28;20124;-71
2021/03/29 10:19:21;;;;;;;58.92;53.67;;;;;;;15.52;78.87;102524.72;5026951;28;20112;-71
2021/03/29 10:22:09;;;;;;;59.03;53.60;;;;;;;16.48;51.97;102524.88;4997346;28;20098;-71
2021/03/29 10:24:36;;;;;;;61.15;55.38;;;;;;;15.42;77.75;102513.53;5026837;28;20029;-71
2021/03/29 10:27:08;;;;;;;58.47;53.08;;;;;;;14.32;72.56;102522.72;5027307;28;20069;-71
2021/03/29 10:29:38;;;;;;;55.25;50.33;;;;;;;13.87;88.41;102522.75;5036303;28;20608;-71
2021/03/29 10:32:10;;;;;;;54.38;49.38;;;;;;;13.89;96.57;102511.88;5027332;28;20033;-72
2021/03/29 10:34:38;;;;;;;54.10;49.22;;;;;;;14.24;100.00;102520.16;5031865;28;20037;-70
2021/03/29 10:37:18;;;;;;;56.63;51.00;;;;;;;15.51;96.19;102515.06;5027928;28;20029;-73
2021/03/29 10:39:43;;;;;;;56.33;50.92;;;;;;;13.24;100.00;102508.78;5025044;28;20337;-72
2021/03/29 10:42:13;;;;;;;55.95;50.88;;;;;;;13.24;100.00;102507.97;5015458;28;20466;-73
2021/03/29 10:44:40;;;;;;;58.45;53.05;;;;;;;14.99;72.84;102508.25;5027160;28;20079;-73
2021/03/29 10:47:06;;;;;;;57.78;52.38;;;;;;;15.19;98.08;102503.91;5027394;28;20095;-72
2021/03/29 10:49:31;;;;;;;58.50;53.10;;;;;;;15.04;91.20;102503.97;5024746;28;20502;-72
2021/03/29 10:51:57;;;;;;;60.55;55.15;;;;;;;15.07;100.00;102490.22;5024248;28;20055;-72
2021/03/29 10:54:23;;;;;;;58.65;53.10;;;;;;;15.40;88.41;102497.69;5042967;28;20481;-73
2021/03/29 10:56:48;;;;;;;58.67;53.47;;;;;;;14.35;61.17;102501.78;5033048;28;20103;-72
2021/03/29 10:59:14;;;;;;;56.42;51.42;;;;;;;15.56;69.96;102500.06;5026370;28;20021;-72
2021/03/29 11:01:39;;;;;;;58.40;53.13;;;;;;;14.94;54.62;102498.09;5027957;28;20037;-72
2021/03/29 11:04:05;;;;;;;57.65;52.45;;;;;;;14.37;85.82;102504.25;5028572;28;20501;-73
2021/03/29 11:06:30;;;;;;;57.22;51.90;;;;;;;15.06;50.20;102493.06;5026859;28;20022;-71
2021/03/29 11:08:56;;;;;;;55.78;50.33;;;;;;;15.20;44.29;102489.50;5024483;28;20103;-72
2021/03/29 11:11:21;;;;;;;55.53;50.33;;;;;;;14.41;69.05;102492.19;5022066;28;20502;-73
2021/03/29 11:13:47;;;;;;;54.65;49.65;;;;;;;17.68;36.14;102485.53;5023068;28;20040;-73
2021/03/29 11:16:14;;;;;;;57.15;51.85;;;;;;;16.67;53.44;102488.41;5029709;28;20090;-74
2021/03/29 11:18:39;;;;;;;55.88;51.28;;;;;;;16.25;61.21;102480.47;5034709;28;20025;-75
2021/03/29 11:21:06;;;;;;;56.08;51.47;;;;;;;16.36;60.44;102481.72;5031214;28;20033;-75
2021/03/29 11:23:32;;;;;;;57.47;52.65;;;;;;;13.95;95.22;102474.56;5026395;28;20056;-73
2021/03/29 11:25:58;;;;;;;58.30;53.40;;;;;;;15.83;82.73;102472.66;5039134;28;20048;-74